Terminal Aerodrome Forecast
Issued by NWS Missoula, MT

Home | Current Version | Previous Version | Text Only | Print | Product List | Glossary On
Versions: 1 2 3 4 5 6 7 8 9 10 11 12 13 14
000
FTUS45 KMSO 012322
TAFMSO
TAF
KMSO 012322Z 0200/0224 31012G25KT P6SM VCSH SCT040 BKN060
      TEMPO 0200/0203 4SM -SHSN BKN025
     FM020400 30008KT P6SM -SHSN BKN040
     FM020600 VRB05KT P6SM BKN070
     FM021800 31012G20KT P6SM BKN070=

USA.gov is the U.S. government's official web portal to all federal, state and local government web resources and services.